createdAt,value
2018-04-02T00:01:18.862Z,27.33
2018-04-02T00:07:23.417Z,27.50
2018-04-02T00:13:29.632Z,26.33
2018-04-02T00:19:34.167Z,26.57
2018-04-02T00:25:40.261Z,25.43
2018-04-02T00:31:44.993Z,25.23
2018-04-02T00:37:50.270Z,24.23
2018-04-02T00:43:55.034Z,24.60
2018-04-02T00:50:01.010Z,24.23
2018-04-02T00:56:05.731Z,26.00
2018-04-02T01:02:10.315Z,28.87
2018-04-02T01:08:14.867Z,31.20
2018-04-02T01:14:19.503Z,29.90
2018-04-02T01:20:25.733Z,30.00
2018-04-02T01:26:30.976Z,31.27
2018-04-02T01:32:36.408Z,33.80
2018-04-02T01:38:41.025Z,31.70
2018-04-02T01:44:45.517Z,37.53
2018-04-02T01:50:50.083Z,35.73
2018-04-02T01:56:54.737Z,39.03
2018-04-02T02:02:59.754Z,36.37
2018-04-02T02:09:04.430Z,40.07
2018-04-02T02:15:09.033Z,38.07
2018-04-02T02:21:13.545Z,39.97
2018-04-02T02:27:18.814Z,40.60
2018-04-02T02:33:23.373Z,41.83
2018-04-02T02:39:29.258Z,41.87
2018-04-02T02:45:33.797Z,41.43
2018-04-02T02:51:38.354Z,44.40
2018-04-02T02:57:42.947Z,42.73
2018-04-02T03:03:47.601Z,45.50
2018-04-02T03:09:52.218Z,44.43
2018-04-02T03:15:57.082Z,45.83
2018-04-02T03:22:01.810Z,45.50
2018-04-02T03:28:06.462Z,47.17
2018-04-02T03:34:10.994Z,43.77
2018-04-02T03:40:15.723Z,46.27
2018-04-02T03:46:20.261Z,45.17
2018-04-02T03:52:24.831Z,47.13
2018-04-02T03:58:30.532Z,46.83
2018-04-02T04:04:35.802Z,49.50
2018-04-02T04:10:40.377Z,47.87
2018-04-02T04:16:44.938Z,46.50
2018-04-02T04:22:49.576Z,47.00
2018-04-02T04:28:54.070Z,48.07
2018-04-02T04:34:59.448Z,46.97
2018-04-02T04:41:04.058Z,45.67
2018-04-02T04:47:08.535Z,44.97
2018-04-02T04:53:13.047Z,44.43
2018-04-02T04:59:18.310Z,42.17
2018-04-02T05:05:22.800Z,41.40
2018-04-02T05:11:27.705Z,43.00
2018-04-02T05:17:33.242Z,43.00
2018-04-02T05:23:37.933Z,44.73
2018-04-02T05:29:42.433Z,40.87
2018-04-02T05:35:47.040Z,46.07
2018-04-02T05:41:51.621Z,41.17
2018-04-02T05:47:57.376Z,43.30
2018-04-02T05:54:01.914Z,44.47
2018-04-02T06:00:06.380Z,43.80
2018-04-02T06:06:10.848Z,42.97
2018-04-02T06:12:15.437Z,45.90
2018-04-02T06:18:19.991Z,45.70
2018-04-02T06:24:24.706Z,48.30
2018-04-02T06:30:30.521Z,45.00
2018-04-02T06:36:35.161Z,47.27
2018-04-02T06:42:40.520Z,44.23
2018-04-02T06:48:45.602Z,43.10
2018-04-02T06:54:51.000Z,44.70
2018-04-02T07:00:56.488Z,45.00
2018-04-02T07:07:01.271Z,44.33
2018-04-02T07:13:05.748Z,46.37
2018-04-02T07:19:10.385Z,43.87
2018-04-02T07:25:14.976Z,44.90
2018-04-02T07:31:19.721Z,46.47
2018-04-02T07:37:25.123Z,43.17
2018-04-02T07:43:30.643Z,44.73
2018-04-02T07:49:35.121Z,46.30
2018-04-02T07:55:39.708Z,43.37
2018-04-02T08:01:44.338Z,45.30
2018-04-02T08:07:49.651Z,43.50
2018-04-02T08:13:54.144Z,41.67
2018-04-02T08:19:59.088Z,39.20
2018-04-02T08:26:03.637Z,48.43
2018-04-02T08:32:08.284Z,37.00
2018-04-02T08:38:12.789Z,45.87
2018-04-02T08:44:17.314Z,34.80
2018-04-02T08:50:21.817Z,37.80
2018-04-02T08:56:27.114Z,38.33
2018-04-02T09:02:32.623Z,45.20
2018-04-02T09:08:37.192Z,33.63
2018-04-02T09:14:41.755Z,36.47
2018-04-02T09:20:47.180Z,34.57
2018-04-02T09:26:53.434Z,37.27
2018-04-02T09:32:58.468Z,35.33
2018-04-02T09:39:03.190Z,35.20
2018-04-02T09:45:08.511Z,37.10
2018-04-02T09:51:13.040Z,37.10
2018-04-02T09:57:18.354Z,34.30
2018-04-02T10:03:22.824Z,32.07
2018-04-02T10:09:27.601Z,30.33
2018-04-02T10:15:32.188Z,33.27
2018-04-02T10:21:36.669Z,34.40
2018-04-02T10:27:41.159Z,34.17
2018-04-02T10:33:45.725Z,30.80
2018-04-02T10:39:50.348Z,31.30
2018-04-02T10:45:55.094Z,29.80
2018-04-02T10:51:59.788Z,27.80
2018-04-02T10:58:05.088Z,29.67
2018-04-02T11:04:09.732Z,28.43
2018-04-02T11:10:14.223Z,26.57
2018-04-02T11:16:19.107Z,31.00
2018-04-02T11:22:23.627Z,23.03
2018-04-02T11:28:28.133Z,22.27
2018-04-02T11:34:32.627Z,22.90
2018-04-02T11:40:37.925Z,25.80
2018-04-02T11:46:42.458Z,21.57
2018-04-02T11:52:47.034Z,18.53
2018-04-02T11:58:51.824Z,21.27
2018-04-02T12:04:56.646Z,20.20
2018-04-02T12:11:01.444Z,15.60
2018-04-02T12:17:05.987Z,22.13
2018-04-02T12:23:10.512Z,17.77
2018-04-02T12:29:15.000Z,19.50
2018-04-02T12:35:19.537Z,18.90
2018-04-02T12:41:25.455Z,16.77
2018-04-02T12:47:30.405Z,16.50
2018-04-02T12:53:35.046Z,19.10
2018-04-02T12:59:39.538Z,19.23
2018-04-02T13:05:44.149Z,17.17
2018-04-02T13:11:48.668Z,16.80
2018-04-02T13:17:53.153Z,16.40
2018-04-02T13:23:57.665Z,15.43
2018-04-02T13:30:02.159Z,17.53
2018-04-02T13:36:06.674Z,14.50
2018-04-02T13:42:11.952Z,14.30
2018-04-02T13:48:16.464Z,13.63
2018-04-02T13:54:20.964Z,14.30
2018-04-02T14:00:25.491Z,15.20
2018-04-02T14:06:30.435Z,13.90
2018-04-02T14:12:34.939Z,12.47
2018-04-02T14:18:39.411Z,18.03
2018-04-02T14:24:44.051Z,14.03
2018-04-02T14:30:49.331Z,15.00
2018-04-02T14:36:53.892Z,15.80
2018-04-02T14:55:59.242Z,13.47
2018-04-02T15:02:03.811Z,13.87
2018-04-02T15:08:08.591Z,12.30
2018-04-02T15:14:13.108Z,13.23
2018-04-02T15:20:17.591Z,12.90
2018-04-02T15:26:22.218Z,12.73
2018-04-02T15:32:27.512Z,13.30
2018-04-02T15:38:32.065Z,21.73
2018-04-02T15:44:36.536Z,10.40
2018-04-02T15:50:41.034Z,17.13
2018-04-02T15:56:46.410Z,9.90
2018-04-02T16:02:50.941Z,9.37
2018-04-02T16:08:55.529Z,8.10
2018-04-02T16:15:00.126Z,7.40
2018-04-02T16:21:06.251Z,8.53
2018-04-02T16:27:10.765Z,8.40
2018-04-02T16:33:15.284Z,7.60
2018-04-02T16:39:20.680Z,6.90
2018-04-02T16:45:25.770Z,7.13
2018-04-02T16:51:30.363Z,7.60
2018-04-02T16:57:34.953Z,47.97
2018-04-02T17:03:39.486Z,7.40
2018-04-02T17:09:44.015Z,8.23
2018-04-02T17:15:48.498Z,8.10
2018-04-02T17:21:52.987Z,7.83
2018-04-02T17:27:57.857Z,7.57
2018-04-02T17:34:02.361Z,7.40
2018-04-02T17:40:06.859Z,7.60
2018-04-02T17:46:11.337Z,8.17
2018-04-02T17:52:15.808Z,7.10
2018-04-02T17:58:20.905Z,7.33
2018-04-02T18:04:25.634Z,8.20
2018-04-02T18:10:30.239Z,7.60
2018-04-02T18:16:34.740Z,7.53
2018-04-02T18:22:39.232Z,8.47
2018-04-02T18:28:43.745Z,7.70
2018-04-02T18:34:49.000Z,9.33
2018-04-02T18:40:53.532Z,9.10
2018-04-02T18:46:58.399Z,8.97
2018-04-02T18:53:02.920Z,8.80
2018-04-02T18:59:07.401Z,8.87
2018-04-02T19:05:11.919Z,8.60
2018-04-02T19:11:16.487Z,9.77
2018-04-02T19:17:20.975Z,8.97
2018-04-02T19:23:27.898Z,9.03
2018-04-02T19:29:32.469Z,9.60
2018-04-02T19:35:37.038Z,8.33
2018-04-02T19:41:42.263Z,8.80
2018-04-02T19:47:46.960Z,8.20
2018-04-02T19:53:52.287Z,9.30
2018-04-02T19:59:57.201Z,11.17
2018-04-02T20:06:02.523Z,9.80
2018-04-02T20:12:07.200Z,8.50
2018-04-02T20:18:11.912Z,8.80
2018-04-02T20:24:16.415Z,8.40
2018-04-02T20:30:20.975Z,8.13
2018-04-02T20:36:25.546Z,9.20
2018-04-02T20:42:30.461Z,8.63
2018-04-02T20:48:35.036Z,11.00
2018-04-02T20:54:39.550Z,11.03
2018-04-02T21:00:44.032Z,9.67
2018-04-02T21:06:48.663Z,10.70
2018-04-02T21:12:53.424Z,10.53
2018-04-02T21:18:58.767Z,9.50
2018-04-02T21:25:03.273Z,9.97
2018-04-02T21:31:07.755Z,11.93
2018-04-02T21:37:12.539Z,11.13
2018-04-02T21:43:17.116Z,11.37
2018-04-02T21:49:21.738Z,11.60
2018-04-02T21:55:26.513Z,11.27
2018-04-02T22:01:31.357Z,12.00
2018-04-02T22:07:36.168Z,10.77
2018-04-02T22:13:40.731Z,10.10
2018-04-02T22:19:45.261Z,10.67
2018-04-02T22:25:49.836Z,11.37
2018-04-02T22:31:54.348Z,11.33
2018-04-02T22:37:59.346Z,12.57
2018-04-02T22:44:03.866Z,12.77
2018-04-02T22:50:08.623Z,12.23
2018-04-02T22:56:13.108Z,12.47
2018-04-02T23:02:18.400Z,12.63
2018-04-02T23:08:22.895Z,13.27
2018-04-02T23:14:28.586Z,12.30
2018-04-02T23:20:33.255Z,13.83
2018-04-02T23:26:37.819Z,14.67
2018-04-02T23:32:42.281Z,12.70
2018-04-02T23:38:46.763Z,12.33
2018-04-02T23:44:51.276Z,12.83
2018-04-02T23:50:55.974Z,12.13
2018-04-02T23:57:00.725Z,11.30
